sensor_id;sensor_type;location;lat;lon;timestamp;P1;durP1;ratioP1;P2;durP2;ratioP2
11048;SDS011;5577;42.706;23.160;2023-04-03T00:01:55;2.60;;;2.10;;
11048;SDS011;5577;42.706;23.160;2023-04-03T00:04:39;3.97;;;1.97;;
11048;SDS011;5577;42.706;23.160;2023-04-03T00:07:24;2.90;;;1.83;;
11048;SDS011;5577;42.706;23.160;2023-04-03T00:10:09;4.57;;;1.87;;
11048;SDS011;5577;42.706;23.160;2023-04-03T00:12:53;3.37;;;2.33;;
11048;SDS011;5577;42.706;23.160;2023-04-03T00:15:37;5.30;;;2.80;;
11048;SDS011;5577;42.706;23.160;2023-04-03T00:18:22;4.83;;;2.47;;
11048;SDS011;5577;42.706;23.160;2023-04-03T00:21:06;3.33;;;2.20;;
11048;SDS011;5577;42.706;23.160;2023-04-03T00:23:51;3.60;;;2.60;;
11048;SDS011;5577;42.706;23.160;2023-04-03T00:26:35;2.60;;;2.10;;
11048;SDS011;5577;42.706;23.160;2023-04-03T00:29:19;7.13;;;3.70;;
11048;SDS011;5577;42.706;23.160;2023-04-03T00:32:03;3.10;;;2.33;;
11048;SDS011;5577;42.706;23.160;2023-04-03T00:34:48;3.63;;;2.17;;
11048;SDS011;5577;42.706;23.160;2023-04-03T00:37:32;4.27;;;2.13;;
11048;SDS011;5577;42.706;23.160;2023-04-03T00:40:16;3.27;;;2.40;;
11048;SDS011;5577;42.706;23.160;2023-04-03T00:43:01;3.17;;;2.40;;
11048;SDS011;5577;42.706;23.160;2023-04-03T00:45:49;9.57;;;4.77;;
11048;SDS011;5577;42.706;23.160;2023-04-03T00:48:39;5.23;;;3.60;;
11048;SDS011;5577;42.706;23.160;2023-04-03T00:51:26;7.97;;;5.00;;
11048;SDS011;5577;42.706;23.160;2023-04-03T00:54:10;8.17;;;4.73;;
11048;SDS011;5577;42.706;23.160;2023-04-03T00:56:55;5.93;;;3.90;;
11048;SDS011;5577;42.706;23.160;2023-04-03T00:59:45;3.00;;;2.70;;
11048;SDS011;5577;42.706;23.160;2023-04-03T01:02:34;2.37;;;2.07;;
11048;SDS011;5577;42.706;23.160;2023-04-03T01:05:19;2.93;;;2.17;;
11048;SDS011;5577;42.706;23.160;2023-04-03T01:08:05;2.77;;;2.20;;
11048;SDS011;5577;42.706;23.160;2023-04-03T01:10:49;2.37;;;1.77;;
11048;SDS011;5577;42.706;23.160;2023-04-03T01:13:33;1.80;;;1.57;;
11048;SDS011;5577;42.706;23.160;2023-04-03T01:16:17;1.87;;;1.47;;
11048;SDS011;5577;42.706;23.160;2023-04-03T01:19:02;1.87;;;1.70;;
11048;SDS011;5577;42.706;23.160;2023-04-03T01:22:10;2.00;;;1.80;;
11048;SDS011;5577;42.706;23.160;2023-04-03T01:25:03;1.80;;;1.70;;
11048;SDS011;5577;42.706;23.160;2023-04-03T01:27:47;2.70;;;1.60;;
11048;SDS011;5577;42.706;23.160;2023-04-03T01:30:33;2.67;;;2.20;;
11048;SDS011;5577;42.706;23.160;2023-04-03T01:33:19;3.00;;;2.00;;
11048;SDS011;5577;42.706;23.160;2023-04-03T01:36:04;3.33;;;2.70;;
11048;SDS011;5577;42.706;23.160;2023-04-03T01:38:48;4.50;;;2.60;;
11048;SDS011;5577;42.706;23.160;2023-04-03T01:41:33;3.10;;;2.33;;
11048;SDS011;5577;42.706;23.160;2023-04-03T01:44:17;3.13;;;2.80;;
11048;SDS011;5577;42.706;23.160;2023-04-03T01:47:01;4.83;;;2.50;;
11048;SDS011;5577;42.706;23.160;2023-04-03T01:49:48;2.57;;;2.10;;
11048;SDS011;5577;42.706;23.160;2023-04-03T01:52:32;2.77;;;2.10;;
11048;SDS011;5577;42.706;23.160;2023-04-03T01:55:16;2.73;;;2.20;;
11048;SDS011;5577;42.706;23.160;2023-04-03T01:58:00;2.87;;;2.40;;
11048;SDS011;5577;42.706;23.160;2023-04-03T02:00:44;3.33;;;2.30;;
11048;SDS011;5577;42.706;23.160;2023-04-03T02:03:28;1.90;;;1.80;;
11048;SDS011;5577;42.706;23.160;2023-04-03T02:06:12;1.83;;;1.70;;
11048;SDS011;5577;42.706;23.160;2023-04-03T02:08:56;4.90;;;3.20;;
11048;SDS011;5577;42.706;23.160;2023-04-03T02:11:40;2.30;;;1.80;;
11048;SDS011;5577;42.706;23.160;2023-04-03T02:14:24;2.20;;;2.00;;
11048;SDS011;5577;42.706;23.160;2023-04-03T02:17:10;3.00;;;2.30;;
11048;SDS011;5577;42.706;23.160;2023-04-03T02:19:54;2.43;;;2.20;;
11048;SDS011;5577;42.706;23.160;2023-04-03T02:22:38;3.57;;;2.57;;
11048;SDS011;5577;42.706;23.160;2023-04-03T02:25:23;4.37;;;2.93;;
11048;SDS011;5577;42.706;23.160;2023-04-03T02:28:06;3.83;;;2.93;;
11048;SDS011;5577;42.706;23.160;2023-04-03T02:30:50;7.00;;;4.53;;
11048;SDS011;5577;42.706;23.160;2023-04-03T02:33:34;4.83;;;2.50;;
11048;SDS011;5577;42.706;23.160;2023-04-03T02:36:20;3.87;;;2.63;;
11048;SDS011;5577;42.706;23.160;2023-04-03T02:39:04;7.90;;;3.90;;
11048;SDS011;5577;42.706;23.160;2023-04-03T02:41:48;8.00;;;4.07;;
11048;SDS011;5577;42.706;23.160;2023-04-03T02:44:33;10.90;;;6.03;;
11048;SDS011;5577;42.706;23.160;2023-04-03T02:47:17;10.30;;;5.83;;
11048;SDS011;5577;42.706;23.160;2023-04-03T02:50:01;7.83;;;5.00;;
11048;SDS011;5577;42.706;23.160;2023-04-03T02:52:45;6.30;;;4.80;;
11048;SDS011;5577;42.706;23.160;2023-04-03T02:55:29;3.57;;;2.93;;
11048;SDS011;5577;42.706;23.160;2023-04-03T02:58:13;4.13;;;2.70;;
11048;SDS011;5577;42.706;23.160;2023-04-03T03:00:57;2.97;;;2.40;;
11048;SDS011;5577;42.706;23.160;2023-04-03T03:03:41;2.97;;;2.10;;
11048;SDS011;5577;42.706;23.160;2023-04-03T03:06:25;3.53;;;2.57;;
11048;SDS011;5577;42.706;23.160;2023-04-03T03:09:10;2.53;;;2.33;;
11048;SDS011;5577;42.706;23.160;2023-04-03T03:11:54;3.73;;;3.00;;
11048;SDS011;5577;42.706;23.160;2023-04-03T03:14:38;3.60;;;3.30;;
11048;SDS011;5577;42.706;23.160;2023-04-03T03:17:23;3.80;;;3.40;;
11048;SDS011;5577;42.706;23.160;2023-04-03T03:20:07;3.57;;;3.10;;
11048;SDS011;5577;42.706;23.160;2023-04-03T03:22:52;5.43;;;3.60;;
11048;SDS011;5577;42.706;23.160;2023-04-03T03:25:39;9.20;;;4.40;;
11048;SDS011;5577;42.706;23.160;2023-04-03T03:28:24;5.10;;;4.50;;
11048;SDS011;5577;42.706;23.160;2023-04-03T03:31:08;6.03;;;4.10;;
11048;SDS011;5577;42.706;23.160;2023-04-03T03:33:53;8.93;;;3.77;;
11048;SDS011;5577;42.706;23.160;2023-04-03T03:36:37;12.03;;;6.23;;
11048;SDS011;5577;42.706;23.160;2023-04-03T03:39:21;10.03;;;4.90;;
11048;SDS011;5577;42.706;23.160;2023-04-03T03:42:05;14.23;;;7.87;;
11048;SDS011;5577;42.706;23.160;2023-04-03T03:44:49;13.77;;;8.03;;
11048;SDS011;5577;42.706;23.160;2023-04-03T03:47:33;14.23;;;7.70;;
11048;SDS011;5577;42.706;23.160;2023-04-03T03:50:17;12.97;;;7.60;;
11048;SDS011;5577;42.706;23.160;2023-04-03T03:53:01;17.33;;;8.53;;
11048;SDS011;5577;42.706;23.160;2023-04-03T03:55:45;13.27;;;8.10;;
11048;SDS011;5577;42.706;23.160;2023-04-03T03:58:29;14.17;;;7.90;;
11048;SDS011;5577;42.706;23.160;2023-04-03T04:01:13;15.70;;;8.27;;
11048;SDS011;5577;42.706;23.160;2023-04-03T04:03:56;17.27;;;7.80;;
11048;SDS011;5577;42.706;23.160;2023-04-03T04:06:40;12.43;;;7.23;;
11048;SDS011;5577;42.706;23.160;2023-04-03T04:09:24;11.70;;;7.40;;
11048;SDS011;5577;42.706;23.160;2023-04-03T04:12:08;10.10;;;6.30;;
11048;SDS011;5577;42.706;23.160;2023-04-03T04:14:53;7.37;;;5.07;;
11048;SDS011;5577;42.706;23.160;2023-04-03T04:17:37;9.63;;;6.50;;
11048;SDS011;5577;42.706;23.160;2023-04-03T04:20:21;6.33;;;4.50;;
11048;SDS011;5577;42.706;23.160;2023-04-03T04:23:05;10.90;;;6.37;;
11048;SDS011;5577;42.706;23.160;2023-04-03T04:25:49;6.37;;;4.70;;
11048;SDS011;5577;42.706;23.160;2023-04-03T04:28:33;5.97;;;4.77;;
11048;SDS011;5577;42.706;23.160;2023-04-03T04:31:18;8.63;;;5.47;;
11048;SDS011;5577;42.706;23.160;2023-04-03T04:34:02;8.90;;;5.43;;
11048;SDS011;5577;42.706;23.160;2023-04-03T04:36:46;6.93;;;5.20;;
11048;SDS011;5577;42.706;23.160;2023-04-03T04:39:30;4.93;;;3.87;;
11048;SDS011;5577;42.706;23.160;2023-04-03T04:42:14;6.23;;;4.47;;
11048;SDS011;5577;42.706;23.160;2023-04-03T04:44:58;10.43;;;5.67;;
11048;SDS011;5577;42.706;23.160;2023-04-03T04:47:42;6.13;;;5.07;;
11048;SDS011;5577;42.706;23.160;2023-04-03T04:50:26;8.20;;;5.47;;
11048;SDS011;5577;42.706;23.160;2023-04-03T04:53:10;6.67;;;5.37;;
11048;SDS011;5577;42.706;23.160;2023-04-03T04:55:54;6.80;;;5.17;;
11048;SDS011;5577;42.706;23.160;2023-04-03T04:58:39;6.27;;;4.90;;
11048;SDS011;5577;42.706;23.160;2023-04-03T05:01:23;5.90;;;4.80;;
11048;SDS011;5577;42.706;23.160;2023-04-03T05:04:08;6.00;;;4.77;;
11048;SDS011;5577;42.706;23.160;2023-04-03T05:06:53;6.20;;;5.13;;
11048;SDS011;5577;42.706;23.160;2023-04-03T05:09:36;7.20;;;5.40;;
11048;SDS011;5577;42.706;23.160;2023-04-03T05:12:20;8.87;;;5.10;;
11048;SDS011;5577;42.706;23.160;2023-04-03T05:15:04;6.03;;;4.93;;
11048;SDS011;5577;42.706;23.160;2023-04-03T05:17:49;5.53;;;4.63;;
11048;SDS011;5577;42.706;23.160;2023-04-03T05:20:34;7.33;;;4.80;;
11048;SDS011;5577;42.706;23.160;2023-04-03T05:23:19;7.93;;;5.00;;
11048;SDS011;5577;42.706;23.160;2023-04-03T05:26:03;8.27;;;4.70;;
11048;SDS011;5577;42.706;23.160;2023-04-03T05:28:47;6.90;;;5.80;;
11048;SDS011;5577;42.706;23.160;2023-04-03T05:31:31;8.03;;;7.10;;
11048;SDS011;5577;42.706;23.160;2023-04-03T05:34:16;8.07;;;7.10;;
11048;SDS011;5577;42.706;23.160;2023-04-03T05:37:00;10.07;;;7.60;;
11048;SDS011;5577;42.706;23.160;2023-04-03T05:39:46;8.40;;;6.80;;
11048;SDS011;5577;42.706;23.160;2023-04-03T05:42:31;6.37;;;4.87;;
11048;SDS011;5577;42.706;23.160;2023-04-03T05:45:15;5.20;;;4.70;;
11048;SDS011;5577;42.706;23.160;2023-04-03T05:47:59;5.60;;;4.17;;
11048;SDS011;5577;42.706;23.160;2023-04-03T05:50:43;6.33;;;4.13;;
11048;SDS011;5577;42.706;23.160;2023-04-03T05:53:28;4.70;;;4.30;;
11048;SDS011;5577;42.706;23.160;2023-04-03T05:56:14;7.97;;;5.17;;
11048;SDS011;5577;42.706;23.160;2023-04-03T05:58:58;8.87;;;4.80;;
11048;SDS011;5577;42.706;23.160;2023-04-03T06:01:42;7.27;;;5.17;;
11048;SDS011;5577;42.706;23.160;2023-04-03T06:04:27;9.03;;;6.53;;
11048;SDS011;5577;42.706;23.160;2023-04-03T06:07:15;9.40;;;5.47;;
11048;SDS011;5577;42.706;23.160;2023-04-03T06:10:02;6.87;;;5.60;;
11048;SDS011;5577;42.706;23.160;2023-04-03T06:12:46;5.77;;;5.17;;
11048;SDS011;5577;42.706;23.160;2023-04-03T06:15:30;5.17;;;4.67;;
11048;SDS011;5577;42.706;23.160;2023-04-03T06:18:15;5.93;;;4.53;;
11048;SDS011;5577;42.706;23.160;2023-04-03T06:20:59;6.80;;;4.70;;
11048;SDS011;5577;42.706;23.160;2023-04-03T06:23:44;5.83;;;4.10;;
11048;SDS011;5577;42.706;23.160;2023-04-03T06:26:29;4.87;;;4.33;;
11048;SDS011;5577;42.706;23.160;2023-04-03T06:29:13;4.40;;;3.80;;
11048;SDS011;5577;42.706;23.160;2023-04-03T06:31:57;5.57;;;4.00;;
11048;SDS011;5577;42.706;23.160;2023-04-03T06:34:41;4.70;;;4.20;;
11048;SDS011;5577;42.706;23.160;2023-04-03T06:37:25;5.27;;;4.20;;
11048;SDS011;5577;42.706;23.160;2023-04-03T06:40:16;4.27;;;3.70;;
11048;SDS011;5577;42.706;23.160;2023-04-03T06:43:10;4.40;;;3.77;;
11048;SDS011;5577;42.706;23.160;2023-04-03T06:45:54;5.70;;;3.90;;
11048;SDS011;5577;42.706;23.160;2023-04-03T06:48:38;3.90;;;3.50;;
11048;SDS011;5577;42.706;23.160;2023-04-03T06:51:26;4.30;;;3.90;;
11048;SDS011;5577;42.706;23.160;2023-04-03T06:54:12;3.63;;;3.20;;
11048;SDS011;5577;42.706;23.160;2023-04-03T06:56:55;6.77;;;3.90;;
11048;SDS011;5577;42.706;23.160;2023-04-03T06:59:39;5.80;;;3.23;;
11048;SDS011;5577;42.706;23.160;2023-04-03T07:02:24;4.80;;;3.80;;
11048;SDS011;5577;42.706;23.160;2023-04-03T07:05:08;4.43;;;3.60;;
11048;SDS011;5577;42.706;23.160;2023-04-03T07:07:53;3.90;;;3.60;;
11048;SDS011;5577;42.706;23.160;2023-04-03T07:10:37;4.10;;;3.70;;
11048;SDS011;5577;42.706;23.160;2023-04-03T07:13:22;3.60;;;3.20;;
11048;SDS011;5577;42.706;23.160;2023-04-03T07:16:06;4.17;;;3.73;;
11048;SDS011;5577;42.706;23.160;2023-04-03T07:18:50;3.60;;;3.27;;
11048;SDS011;5577;42.706;23.160;2023-04-03T07:21:34;3.40;;;3.10;;
11048;SDS011;5577;42.706;23.160;2023-04-03T07:24:19;4.50;;;2.80;;
11048;SDS011;5577;42.706;23.160;2023-04-03T07:27:02;4.03;;;3.17;;
11048;SDS011;5577;42.706;23.160;2023-04-03T07:29:47;3.10;;;2.80;;
11048;SDS011;5577;42.706;23.160;2023-04-03T07:32:34;3.50;;;3.07;;
11048;SDS011;5577;42.706;23.160;2023-04-03T07:35:19;4.17;;;2.97;;
11048;SDS011;5577;42.706;23.160;2023-04-03T07:38:02;3.90;;;3.50;;
11048;SDS011;5577;42.706;23.160;2023-04-03T07:40:47;4.63;;;3.03;;
11048;SDS011;5577;42.706;23.160;2023-04-03T07:43:32;3.70;;;3.20;;
11048;SDS011;5577;42.706;23.160;2023-04-03T07:46:18;5.03;;;3.40;;
11048;SDS011;5577;42.706;23.160;2023-04-03T07:49:02;4.97;;;3.33;;
11048;SDS011;5577;42.706;23.160;2023-04-03T07:51:46;3.97;;;3.47;;
11048;SDS011;5577;42.706;23.160;2023-04-03T07:54:30;5.83;;;3.53;;
11048;SDS011;5577;42.706;23.160;2023-04-03T07:57:14;4.60;;;3.23;;
11048;SDS011;5577;42.706;23.160;2023-04-03T07:59:58;5.23;;;3.00;;
11048;SDS011;5577;42.706;23.160;2023-04-03T08:02:43;4.03;;;3.00;;
11048;SDS011;5577;42.706;23.160;2023-04-03T08:05:28;5.97;;;3.53;;
11048;SDS011;5577;42.706;23.160;2023-04-03T08:08:12;4.73;;;3.30;;
11048;SDS011;5577;42.706;23.160;2023-04-03T08:10:59;3.60;;;3.10;;
11048;SDS011;5577;42.706;23.160;2023-04-03T08:13:45;2.67;;;2.47;;
11048;SDS011;5577;42.706;23.160;2023-04-03T08:16:30;3.60;;;2.93;;
11048;SDS011;5577;42.706;23.160;2023-04-03T08:19:14;2.93;;;2.60;;
11048;SDS011;5577;42.706;23.160;2023-04-03T08:22:02;2.50;;;2.30;;
11048;SDS011;5577;42.706;23.160;2023-04-03T08:24:47;2.87;;;2.40;;
11048;SDS011;5577;42.706;23.160;2023-04-03T08:27:31;2.93;;;2.63;;
11048;SDS011;5577;42.706;23.160;2023-04-03T08:30:14;2.83;;;2.60;;
11048;SDS011;5577;42.706;23.160;2023-04-03T08:33:02;2.70;;;2.50;;
11048;SDS011;5577;42.706;23.160;2023-04-03T08:35:46;3.50;;;2.80;;
11048;SDS011;5577;42.706;23.160;2023-04-03T08:38:30;3.50;;;2.70;;
11048;SDS011;5577;42.706;23.160;2023-04-03T08:50:30;4.37;;;2.70;;
11048;SDS011;5577;42.706;23.160;2023-04-03T08:53:24;4.83;;;3.10;;
11048;SDS011;5577;42.706;23.160;2023-04-03T08:56:12;4.10;;;2.73;;
11048;SDS011;5577;42.706;23.160;2023-04-03T08:59:06;4.47;;;3.63;;
11048;SDS011;5577;42.706;23.160;2023-04-03T09:01:57;4.83;;;3.93;;
11048;SDS011;5577;42.706;23.160;2023-04-03T09:04:45;9.53;;;4.57;;
11048;SDS011;5577;42.706;23.160;2023-04-03T09:07:37;4.53;;;4.03;;
11048;SDS011;5577;42.706;23.160;2023-04-03T09:10:28;7.33;;;4.27;;
11048;SDS011;5577;42.706;23.160;2023-04-03T09:15:59;5.00;;;4.10;;
11048;SDS011;5577;42.706;23.160;2023-04-03T09:18:48;7.43;;;4.90;;
11048;SDS011;5577;42.706;23.160;2023-04-03T09:21:56;7.57;;;5.03;;
11048;SDS011;5577;42.706;23.160;2023-04-03T09:24:41;7.50;;;4.80;;
11048;SDS011;5577;42.706;23.160;2023-04-03T09:27:32;6.37;;;5.20;;
11048;SDS011;5577;42.706;23.160;2023-04-03T09:30:17;9.27;;;6.00;;
11048;SDS011;5577;42.706;23.160;2023-04-03T09:33:04;8.17;;;6.00;;
11048;SDS011;5577;42.706;23.160;2023-04-03T09:35:49;9.97;;;6.30;;
11048;SDS011;5577;42.706;23.160;2023-04-03T09:38:34;8.47;;;6.40;;
11048;SDS011;5577;42.706;23.160;2023-04-03T09:41:19;8.80;;;6.13;;
11048;SDS011;5577;42.706;23.160;2023-04-03T09:44:17;10.43;;;5.90;;
11048;SDS011;5577;42.706;23.160;2023-04-03T09:47:51;7.30;;;6.30;;
11048;SDS011;5577;42.706;23.160;2023-04-03T09:53:06;11.27;;;6.93;;
11048;SDS011;5577;42.706;23.160;2023-04-03T10:01:58;11.87;;;7.63;;
11048;SDS011;5577;42.706;23.160;2023-04-03T10:04:46;7.90;;;7.10;;
11048;SDS011;5577;42.706;23.160;2023-04-03T10:07:34;8.67;;;6.73;;
11048;SDS011;5577;42.706;23.160;2023-04-03T10:10:21;7.53;;;6.13;;
11048;SDS011;5577;42.706;23.160;2023-04-03T10:13:19;7.00;;;6.30;;
11048;SDS011;5577;42.706;23.160;2023-04-03T10:16:12;7.67;;;5.97;;
11048;SDS011;5577;42.706;23.160;2023-04-03T10:19:17;13.27;;;6.83;;
11048;SDS011;5577;42.706;23.160;2023-04-03T10:34:23;16.10;;;11.23;;
11048;SDS011;5577;42.706;23.160;2023-04-03T10:37:22;15.53;;;10.73;;
11048;SDS011;5577;42.706;23.160;2023-04-03T10:58:26;13.17;;;7.83;;
11048;SDS011;5577;42.706;23.160;2023-04-03T11:01:16;8.00;;;6.10;;
11048;SDS011;5577;42.706;23.160;2023-04-03T11:04:05;9.17;;;6.50;;
11048;SDS011;5577;42.706;23.160;2023-04-03T11:06:52;7.73;;;6.20;;
11048;SDS011;5577;42.706;23.160;2023-04-03T11:09:45;8.50;;;6.43;;
11048;SDS011;5577;42.706;23.160;2023-04-03T11:12:46;10.90;;;7.40;;
11048;SDS011;5577;42.706;23.160;2023-04-03T11:15:35;8.63;;;5.20;;
11048;SDS011;5577;42.706;23.160;2023-04-03T11:18:22;5.80;;;4.67;;
11048;SDS011;5577;42.706;23.160;2023-04-03T11:21:19;6.77;;;4.50;;
11048;SDS011;5577;42.706;23.160;2023-04-03T11:24:15;4.03;;;3.63;;
11048;SDS011;5577;42.706;23.160;2023-04-03T11:27:05;5.47;;;3.30;;
11048;SDS011;5577;42.706;23.160;2023-04-03T11:29:57;4.20;;;3.80;;
11048;SDS011;5577;42.706;23.160;2023-04-03T11:39:00;6.00;;;4.20;;
11048;SDS011;5577;42.706;23.160;2023-04-03T11:41:53;4.70;;;4.20;;
11048;SDS011;5577;42.706;23.160;2023-04-03T11:44:37;5.00;;;4.50;;
11048;SDS011;5577;42.706;23.160;2023-04-03T11:53:27;4.70;;;4.20;;
11048;SDS011;5577;42.706;23.160;2023-04-03T12:01:58;8.83;;;6.17;;
11048;SDS011;5577;42.706;23.160;2023-04-03T12:04:42;5.83;;;5.20;;
11048;SDS011;5577;42.706;23.160;2023-04-03T12:14:16;4.87;;;4.43;;
11048;SDS011;5577;42.706;23.160;2023-04-03T12:17:01;5.03;;;4.47;;
11048;SDS011;5577;42.706;23.160;2023-04-03T12:19:45;6.20;;;5.30;;
11048;SDS011;5577;42.706;23.160;2023-04-03T12:22:30;6.80;;;5.23;;
11048;SDS011;5577;42.706;23.160;2023-04-03T12:28:38;6.57;;;5.47;;
11048;SDS011;5577;42.706;23.160;2023-04-03T12:31:25;6.10;;;5.50;;
11048;SDS011;5577;42.706;23.160;2023-04-03T12:37:21;6.50;;;5.80;;
11048;SDS011;5577;42.706;23.160;2023-04-03T12:40:43;6.40;;;5.20;;
11048;SDS011;5577;42.706;23.160;2023-04-03T12:43:40;6.57;;;5.77;;
11048;SDS011;5577;42.706;23.160;2023-04-03T12:46:43;12.67;;;9.03;;
11048;SDS011;5577;42.706;23.160;2023-04-03T12:52:18;6.23;;;5.63;;
11048;SDS011;5577;42.706;23.160;2023-04-03T12:55:16;6.10;;;5.33;;
11048;SDS011;5577;42.706;23.160;2023-04-03T12:58:14;6.80;;;6.20;;
11048;SDS011;5577;42.706;23.160;2023-04-03T13:01:11;9.43;;;8.40;;
11048;SDS011;5577;42.706;23.160;2023-04-03T13:03:58;7.43;;;6.73;;
11048;SDS011;5577;42.706;23.160;2023-04-03T13:06:42;5.87;;;5.37;;
11048;SDS011;5577;42.706;23.160;2023-04-03T13:09:28;5.97;;;5.40;;
11048;SDS011;5577;42.706;23.160;2023-04-03T13:12:15;6.60;;;6.00;;
11048;SDS011;5577;42.706;23.160;2023-04-03T13:15:00;7.30;;;6.60;;
11048;SDS011;5577;42.706;23.160;2023-04-03T13:17:48;7.37;;;6.67;;
11048;SDS011;5577;42.706;23.160;2023-04-03T13:20:34;7.60;;;6.90;;
11048;SDS011;5577;42.706;23.160;2023-04-03T13:23:20;8.53;;;7.23;;
11048;SDS011;5577;42.706;23.160;2023-04-03T13:26:04;8.23;;;7.37;;
11048;SDS011;5577;42.706;23.160;2023-04-03T13:28:50;8.50;;;7.70;;
11048;SDS011;5577;42.706;23.160;2023-04-03T13:31:35;13.23;;;10.03;;
11048;SDS011;5577;42.706;23.160;2023-04-03T13:34:22;8.30;;;7.20;;
11048;SDS011;5577;42.706;23.160;2023-04-03T13:37:23;9.23;;;8.23;;
11048;SDS011;5577;42.706;23.160;2023-04-03T13:40:13;10.00;;;9.10;;
11048;SDS011;5577;42.706;23.160;2023-04-03T13:43:05;12.00;;;9.90;;
11048;SDS011;5577;42.706;23.160;2023-04-03T13:46:06;13.77;;;10.30;;
11048;SDS011;5577;42.706;23.160;2023-04-03T13:52:22;12.47;;;11.20;;
11048;SDS011;5577;42.706;23.160;2023-04-03T14:00:53;11.23;;;10.17;;
11048;SDS011;5577;42.706;23.160;2023-04-03T14:03:56;10.37;;;9.27;;
11048;SDS011;5577;42.706;23.160;2023-04-03T14:06:46;11.20;;;10.00;;
11048;SDS011;5577;42.706;23.160;2023-04-03T14:09:30;13.30;;;10.60;;
11048;SDS011;5577;42.706;23.160;2023-04-03T14:12:16;12.20;;;10.90;;
11048;SDS011;5577;42.706;23.160;2023-04-03T14:15:07;12.70;;;11.47;;
11048;SDS011;5577;42.706;23.160;2023-04-03T14:18:01;12.80;;;10.87;;
11048;SDS011;5577;42.706;23.160;2023-04-03T14:20:45;12.53;;;10.50;;
11048;SDS011;5577;42.706;23.160;2023-04-03T14:23:30;13.53;;;12.13;;
11048;SDS011;5577;42.706;23.160;2023-04-03T14:26:15;11.83;;;10.53;;
11048;SDS011;5577;42.706;23.160;2023-04-03T14:29:02;12.80;;;11.50;;
11048;SDS011;5577;42.706;23.160;2023-04-03T14:31:46;14.60;;;13.10;;
11048;SDS011;5577;42.706;23.160;2023-04-03T14:34:31;14.27;;;12.80;;
11048;SDS011;5577;42.706;23.160;2023-04-03T14:37:17;15.50;;;13.40;;
11048;SDS011;5577;42.706;23.160;2023-04-03T14:40:07;15.10;;;13.07;;
11048;SDS011;5577;42.706;23.160;2023-04-03T14:42:53;18.37;;;14.37;;
11048;SDS011;5577;42.706;23.160;2023-04-03T14:45:39;16.10;;;14.30;;
11048;SDS011;5577;42.706;23.160;2023-04-03T14:48:24;16.73;;;15.03;;
11048;SDS011;5577;42.706;23.160;2023-04-03T14:51:11;17.37;;;14.97;;
11048;SDS011;5577;42.706;23.160;2023-04-03T14:53:56;17.47;;;13.83;;
11048;SDS011;5577;42.706;23.160;2023-04-03T14:56:40;17.03;;;14.33;;
11048;SDS011;5577;42.706;23.160;2023-04-03T14:59:26;14.67;;;13.13;;
11048;SDS011;5577;42.706;23.160;2023-04-03T15:02:32;14.80;;;12.30;;
11048;SDS011;5577;42.706;23.160;2023-04-03T15:05:18;17.63;;;15.30;;
11048;SDS011;5577;42.706;23.160;2023-04-03T15:08:03;23.07;;;17.70;;
11048;SDS011;5577;42.706;23.160;2023-04-03T15:10:47;20.13;;;18.00;;
11048;SDS011;5577;42.706;23.160;2023-04-03T15:13:31;20.47;;;16.60;;
11048;SDS011;5577;42.706;23.160;2023-04-03T15:16:16;13.20;;;11.90;;
11048;SDS011;5577;42.706;23.160;2023-04-03T15:19:03;13.07;;;11.70;;
11048;SDS011;5577;42.706;23.160;2023-04-03T15:21:46;13.83;;;12.53;;
11048;SDS011;5577;42.706;23.160;2023-04-03T15:24:30;33.13;;;22.77;;
11048;SDS011;5577;42.706;23.160;2023-04-03T15:27:14;11.70;;;10.60;;
11048;SDS011;5577;42.706;23.160;2023-04-03T15:29:59;16.97;;;15.27;;
11048;SDS011;5577;42.706;23.160;2023-04-03T15:32:43;13.10;;;11.70;;
11048;SDS011;5577;42.706;23.160;2023-04-03T15:35:27;15.63;;;14.13;;
11048;SDS011;5577;42.706;23.160;2023-04-03T15:38:11;13.27;;;11.23;;
11048;SDS011;5577;42.706;23.160;2023-04-03T15:40:56;11.57;;;10.20;;
11048;SDS011;5577;42.706;23.160;2023-04-03T15:43:41;9.37;;;8.10;;
11048;SDS011;5577;42.706;23.160;2023-04-03T15:46:26;8.70;;;7.90;;
11048;SDS011;5577;42.706;23.160;2023-04-03T15:49:09;8.07;;;7.00;;
11048;SDS011;5577;42.706;23.160;2023-04-03T15:51:54;9.30;;;7.10;;
11048;SDS011;5577;42.706;23.160;2023-04-03T15:54:38;7.80;;;7.00;;
11048;SDS011;5577;42.706;23.160;2023-04-03T15:57:23;8.47;;;7.63;;
11048;SDS011;5577;42.706;23.160;2023-04-03T16:00:09;9.10;;;8.20;;
11048;SDS011;5577;42.706;23.160;2023-04-03T16:02:58;10.43;;;8.37;;
11048;SDS011;5577;42.706;23.160;2023-04-03T16:05:45;10.17;;;9.17;;
11048;SDS011;5577;42.706;23.160;2023-04-03T16:08:30;11.20;;;9.77;;
11048;SDS011;5577;42.706;23.160;2023-04-03T16:11:14;10.00;;;9.00;;
11048;SDS011;5577;42.706;23.160;2023-04-03T16:13:58;10.70;;;9.20;;
11048;SDS011;5577;42.706;23.160;2023-04-03T16:16:42;8.60;;;7.77;;
11048;SDS011;5577;42.706;23.160;2023-04-03T16:19:26;8.87;;;8.07;;
11048;SDS011;5577;42.706;23.160;2023-04-03T16:22:10;6.93;;;6.23;;
11048;SDS011;5577;42.706;23.160;2023-04-03T16:24:55;7.70;;;6.90;;
11048;SDS011;5577;42.706;23.160;2023-04-03T16:27:39;8.00;;;6.93;;
11048;SDS011;5577;42.706;23.160;2023-04-03T16:30:23;10.47;;;9.47;;
11048;SDS011;5577;42.706;23.160;2023-04-03T16:33:08;5.70;;;5.20;;
11048;SDS011;5577;42.706;23.160;2023-04-03T16:35:53;7.03;;;6.10;;
11048;SDS011;5577;42.706;23.160;2023-04-03T16:38:38;7.80;;;6.03;;
11048;SDS011;5577;42.706;23.160;2023-04-03T16:41:22;7.57;;;6.87;;
11048;SDS011;5577;42.706;23.160;2023-04-03T16:44:06;7.77;;;7.07;;
11048;SDS011;5577;42.706;23.160;2023-04-03T16:46:50;8.63;;;7.73;;
11048;SDS011;5577;42.706;23.160;2023-04-03T16:49:34;10.63;;;8.70;;
11048;SDS011;5577;42.706;23.160;2023-04-03T16:52:19;9.90;;;8.63;;
11048;SDS011;5577;42.706;23.160;2023-04-03T16:55:03;11.37;;;9.53;;
11048;SDS011;5577;42.706;23.160;2023-04-03T16:57:47;11.13;;;9.70;;
11048;SDS011;5577;42.706;23.160;2023-04-03T17:00:31;13.70;;;12.30;;
11048;SDS011;5577;42.706;23.160;2023-04-03T17:03:16;15.83;;;13.10;;
11048;SDS011;5577;42.706;23.160;2023-04-03T17:06:00;24.27;;;17.77;;
11048;SDS011;5577;42.706;23.160;2023-04-03T17:08:45;27.17;;;20.20;;
11048;SDS011;5577;42.706;23.160;2023-04-03T17:11:31;18.57;;;14.97;;
11048;SDS011;5577;42.706;23.160;2023-04-03T17:14:16;16.37;;;14.60;;
11048;SDS011;5577;42.706;23.160;2023-04-03T17:17:00;12.10;;;10.90;;
11048;SDS011;5577;42.706;23.160;2023-04-03T17:19:45;13.90;;;11.17;;
11048;SDS011;5577;42.706;23.160;2023-04-03T17:22:29;14.70;;;12.10;;
11048;SDS011;5577;42.706;23.160;2023-04-03T17:25:15;13.77;;;11.63;;
11048;SDS011;5577;42.706;23.160;2023-04-03T17:27:59;14.10;;;12.13;;
11048;SDS011;5577;42.706;23.160;2023-04-03T17:30:43;12.67;;;10.40;;
11048;SDS011;5577;42.706;23.160;2023-04-03T17:33:27;12.23;;;10.93;;
11048;SDS011;5577;42.706;23.160;2023-04-03T17:36:13;11.33;;;9.70;;
11048;SDS011;5577;42.706;23.160;2023-04-03T17:38:58;11.97;;;10.77;;
11048;SDS011;5577;42.706;23.160;2023-04-03T17:41:42;9.17;;;8.27;;
11048;SDS011;5577;42.706;23.160;2023-04-03T17:44:28;7.87;;;6.97;;
11048;SDS011;5577;42.706;23.160;2023-04-03T17:47:12;8.13;;;7.13;;
11048;SDS011;5577;42.706;23.160;2023-04-03T17:49:56;8.33;;;7.33;;
11048;SDS011;5577;42.706;23.160;2023-04-03T17:52:40;8.23;;;7.40;;
11048;SDS011;5577;42.706;23.160;2023-04-03T17:55:24;9.47;;;8.57;;
11048;SDS011;5577;42.706;23.160;2023-04-03T17:58:08;8.27;;;6.90;;
11048;SDS011;5577;42.706;23.160;2023-04-03T18:00:52;9.07;;;8.07;;
11048;SDS011;5577;42.706;23.160;2023-04-03T18:03:37;8.33;;;7.33;;
11048;SDS011;5577;42.706;23.160;2023-04-03T18:06:24;7.87;;;7.07;;
11048;SDS011;5577;42.706;23.160;2023-04-03T18:09:20;9.93;;;7.87;;
11048;SDS011;5577;42.706;23.160;2023-04-03T18:12:08;10.10;;;7.97;;